Time;durP1;ratioP1;P1;durP2;ratioP2;P2;SDS_P1;SDS_P2;PMS_P1;PMS_P2;Temp;Humidity;BMP_temperature;BMP_pressure;BME280_temperature;BME280_humidity;BME280_pressure;Samples;Min_cycle;Max_cycle;Signal;HPM_P1;HPM_P2
2022/04/22 00:00:06;;;;;;;11.38;5.35;;;10.80;99.90;;;;;;4965498;28;20117;-68
2022/04/22 00:02:32;;;;;;;10.77;5.30;;;10.80;99.90;;;;;;4959760;28;20425;-68
2022/04/22 00:04:58;;;;;;;9.25;5.63;;;10.70;99.90;;;;;;4964298;28;20051;-68
2022/04/22 00:07:23;;;;;;;10.20;5.38;;;10.70;99.90;;;;;;4961735;28;20086;-67
2022/04/22 00:09:49;;;;;;;11.00;5.88;;;10.60;99.90;;;;;;4957131;28;20039;-68
2022/04/22 00:12:15;;;;;;;9.95;5.72;;;10.60;99.90;;;;;;4960681;28;20047;-68
2022/04/22 00:14:40;;;;;;;11.70;6.53;;;10.50;99.90;;;;;;4963580;28;20516;-68
2022/04/22 00:17:06;;;;;;;12.00;6.50;;;10.50;99.90;;;;;;4960070;28;20046;-68
2022/04/22 00:19:32;;;;;;;7.70;5.22;;;10.50;99.90;;;;;;4960905;28;20401;-68
2022/04/22 00:21:57;;;;;;;10.25;6.68;;;10.50;99.90;;;;;;4964119;28;20108;-68
2022/04/22 00:24:23;;;;;;;9.32;6.03;;;10.50;99.90;;;;;;4957540;28;20062;-68
2022/04/22 00:26:48;;;;;;;10.50;5.50;;;10.50;99.90;;;;;;4960186;28;20058;-68
2022/04/22 00:29:14;;;;;;;10.27;5.50;;;10.40;99.90;;;;;;4976770;28;20104;-68
2022/04/22 00:31:40;;;;;;;7.13;5.22;;;10.40;99.90;;;;;;4964145;28;20504;-68
2022/04/22 00:34:05;;;;;;;11.75;6.40;;;10.40;99.90;;;;;;4960842;28;20054;-68
2022/04/22 00:36:31;;;;;;;12.68;6.82;;;10.40;99.90;;;;;;4962482;28;20050;-68
2022/04/22 00:38:57;;;;;;;12.15;7.18;;;10.40;99.90;;;;;;4964079;28;20608;-68
2022/04/22 00:41:22;;;;;;;12.93;6.45;;;10.30;99.90;;;;;;4963263;28;20054;-68
2022/04/22 00:43:50;;;;;;;13.38;6.30;;;10.30;99.90;;;;;;4963522;28;20055;-68
2022/04/22 00:46:16;;;;;;;12.00;6.00;;;10.20;99.90;;;;;;4977574;28;20042;-68
2022/04/22 00:48:42;;;;;;;9.25;6.57;;;10.20;99.90;;;;;;4963438;28;20047;-68
2022/04/22 00:51:09;;;;;;;15.32;6.78;;;10.20;99.90;;;;;;4964904;28;20039;-68
2022/04/22 00:53:35;;;;;;;13.45;6.28;;;10.10;99.90;;;;;;4962312;28;20039;-68
2022/04/22 00:56:07;;;;;;;13.50;7.10;;;10.10;99.90;;;;;;4965975;28;20051;-67
2022/04/22 00:58:36;;;;;;;8.80;6.40;;;10.00;99.90;;;;;;4960697;28;20046;-68
2022/04/22 01:01:02;;;;;;;13.13;7.15;;;10.00;99.90;;;;;;4961673;28;20469;-68
2022/04/22 01:03:28;;;;;;;15.90;7.70;;;10.00;99.90;;;;;;4960609;28;20037;-67
2022/04/22 01:11:27;;;;;;;17.27;8.40;;;9.80;99.90;;;;;;4964933;28;20059;-67
2022/04/22 01:13:54;;;;;;;11.07;7.50;;;9.80;99.90;;;;;;4959847;28;20054;-67
2022/04/22 01:16:19;;;;;;;13.52;7.90;;;9.70;99.90;;;;;;4961578;28;20042;-67
2022/04/22 01:18:45;;;;;;;11.68;8.00;;;9.70;99.90;;;;;;4960410;28;20039;-67
2022/04/22 01:21:11;;;;;;;16.00;8.20;;;9.60;99.90;;;;;;4962000;28;20038;-67
2022/04/22 01:23:37;;;;;;;12.48;8.32;;;9.50;99.90;;;;;;4961290;28;20039;-68
2022/04/22 01:26:03;;;;;;;16.83;7.47;;;9.50;99.90;;;;;;4962755;28;20039;-68
2022/04/22 01:28:29;;;;;;;13.80;8.57;;;9.40;99.90;;;;;;4960679;28;20042;-68
2022/04/22 01:30:58;;;;;;;14.00;7.70;;;9.40;99.90;;;;;;4964729;28;20043;-68
2022/04/22 01:33:24;;;;;;;14.68;7.60;;;9.40;99.90;;;;;;4967847;28;20042;-68
2022/04/22 01:35:49;;;;;;;14.65;8.25;;;9.30;99.90;;;;;;4965479;28;20090;-68
2022/04/22 01:38:15;;;;;;;14.35;7.97;;;9.40;99.90;;;;;;4964330;28;20098;-68
2022/04/22 01:40:41;;;;;;;12.32;8.55;;;9.30;99.90;;;;;;4967402;28;20049;-68
2022/04/22 01:43:06;;;;;;;14.90;8.23;;;9.20;99.90;;;;;;4982298;28;20046;-68
2022/04/22 01:45:32;;;;;;;10.93;8.00;;;9.20;99.90;;;;;;4963297;28;20054;-68
2022/04/22 01:47:57;;;;;;;14.20;8.43;;;9.30;99.90;;;;;;4966114;28;20095;-68
2022/04/22 01:50:23;;;;;;;15.27;8.05;;;9.20;99.90;;;;;;4978331;28;20055;-68
2022/04/22 01:52:49;;;;;;;12.52;8.23;;;9.10;99.90;;;;;;4965991;28;20050;-68
2022/04/22 01:55:15;;;;;;;10.05;7.57;;;9.00;99.90;;;;;;4965982;28;20057;-68
2022/04/22 01:57:41;;;;;;;14.20;8.65;;;9.00;99.90;;;;;;4964898;28;20061;-68
2022/04/22 02:00:07;;;;;;;14.98;8.50;;;9.00;99.90;;;;;;4967517;28;20500;-68
2022/04/22 02:02:33;;;;;;;12.43;8.25;;;8.90;99.90;;;;;;4979235;28;20051;-68
2022/04/22 02:04:59;;;;;;;16.63;9.00;;;8.80;99.90;;;;;;4979692;28;20050;-67
2022/04/22 02:07:24;;;;;;;14.20;8.80;;;8.80;99.90;;;;;;4961617;28;20150;-67
2022/04/22 02:09:50;;;;;;;13.52;9.10;;;8.80;99.90;;;;;;4961854;28;20195;-67
2022/04/22 02:12:16;;;;;;;16.10;8.00;;;8.80;99.90;;;;;;4976862;28;20066;-67
2022/04/22 02:14:41;;;;;;;19.02;9.35;;;8.80;99.90;;;;;;4958514;28;20047;-67
2022/04/22 02:17:07;;;;;;;11.18;8.23;;;8.80;99.90;;;;;;4965169;28;20039;-68
2022/04/22 02:19:33;;;;;;;12.13;7.78;;;8.70;99.90;;;;;;4960264;28;20571;-67
2022/04/22 02:21:58;;;;;;;15.05;8.45;;;8.70;99.90;;;;;;4980094;28;20535;-68
2022/04/22 02:24:24;;;;;;;14.95;9.63;;;8.70;99.90;;;;;;4962005;28;20701;-68
2022/04/22 02:29:36;;;;;;;18.95;8.90;;;8.70;99.90;;;;;;4959713;28;20059;-67
2022/04/22 02:32:01;;;;;;;15.85;9.13;;;8.60;99.90;;;;;;4966499;28;20102;-67
2022/04/22 02:34:27;;;;;;;16.10;8.15;;;8.60;99.90;;;;;;4963872;28;20047;-67
2022/04/22 02:36:53;;;;;;;13.73;8.55;;;8.60;99.90;;;;;;4965044;28;20051;-67
2022/04/22 02:39:19;;;;;;;13.07;7.80;;;8.60;99.90;;;;;;4966939;28;20047;-67
2022/04/22 02:47:14;;;;;;;13.98;8.23;;;8.60;99.90;;;;;;4959835;28;20055;-68
2022/04/22 02:49:44;;;;;;;12.55;7.60;;;8.60;99.90;;;;;;4968552;28;20537;-68
2022/04/22 02:52:14;;;;;;;15.02;8.32;;;8.60;99.90;;;;;;4964639;28;20058;-67
2022/04/22 02:54:40;;;;;;;16.42;8.75;;;8.60;99.90;;;;;;4961090;28;20038;-67
2022/04/22 02:57:06;;;;;;;14.05;6.85;;;8.60;99.90;;;;;;4965116;28;20114;-67
2022/04/22 02:59:32;;;;;;;12.63;8.00;;;8.60;99.90;;;;;;4961625;28;20054;-67
2022/04/22 03:01:59;;;;;;;11.38;6.78;;;8.50;99.90;;;;;;4966531;28;20038;-68
2022/04/22 03:04:27;;;;;;;12.75;7.22;;;8.50;99.90;;;;;;4962125;28;20559;-67
2022/04/22 03:06:55;;;;;;;14.25;7.65;;;8.50;99.90;;;;;;4965117;28;20046;-67
2022/04/22 03:09:21;;;;;;;14.23;7.32;;;8.50;99.90;;;;;;4977570;28;20150;-66
2022/04/22 03:11:47;;;;;;;12.88;7.25;;;8.50;99.90;;;;;;4962249;28;20065;-67
2022/04/22 03:14:13;;;;;;;11.23;7.13;;;8.40;99.90;;;;;;4965536;28;20046;-67
2022/04/22 03:16:40;;;;;;;11.52;7.00;;;8.40;99.90;;;;;;4962623;28;20665;-67
2022/04/22 03:19:07;;;;;;;14.07;6.47;;;8.30;99.90;;;;;;4961534;28;20153;-67
2022/04/22 03:21:34;;;;;;;12.10;6.85;;;8.30;99.90;;;;;;4979515;28;20038;-67
2022/04/22 03:23:59;;;;;;;10.43;5.85;;;8.30;99.90;;;;;;4964085;28;20046;-67
2022/04/22 03:26:25;;;;;;;12.77;5.88;;;8.30;99.90;;;;;;4963866;28;20468;-68
2022/04/22 03:28:52;;;;;;;8.93;6.15;;;8.30;99.90;;;;;;4967181;28;20043;-67
2022/04/22 03:31:18;;;;;;;11.95;6.43;;;8.20;99.90;;;;;;4966769;28;20047;-67
2022/04/22 03:33:44;;;;;;;9.80;5.65;;;8.20;99.90;;;;;;4979699;28;20182;-67
2022/04/22 03:36:10;;;;;;;8.05;4.93;;;8.20;99.90;;;;;;4966008;28;20127;-67
2022/04/22 03:38:35;;;;;;;9.73;5.40;;;8.20;99.90;;;;;;4962187;28;20042;-67
2022/04/22 03:41:02;;;;;;;13.00;5.30;;;8.70;99.90;;;;;;4964515;28;20038;-67
2022/04/22 03:43:27;;;;;;;13.32;5.47;;;8.20;99.90;;;;;;4962183;28;20066;-67
2022/04/22 03:45:53;;;;;;;10.77;5.15;;;8.10;99.90;;;;;;4964169;28;20132;-66
2022/04/22 03:48:18;;;;;;;8.55;4.82;;;8.10;99.90;;;;;;4964197;28;20466;-67
2022/04/22 03:50:44;;;;;;;8.77;5.00;;;8.10;99.90;;;;;;4965366;28;20072;-67
2022/04/22 03:53:11;;;;;;;8.07;4.38;;;8.10;99.90;;;;;;4963516;28;20046;-67
2022/04/22 03:55:38;;;;;;;8.18;4.72;;;8.10;99.90;;;;;;4963168;28;20035;-67
2022/04/22 03:58:13;;;;;;;10.38;4.97;;;8.00;99.90;;;;;;4961641;28;20121;-67
2022/04/22 04:00:57;;;;;;;7.70;4.20;;;8.00;99.90;;;;;;4965136;28;20058;-67
2022/04/22 04:03:23;;;;;;;5.45;4.00;;;7.90;99.90;;;;;;4961823;28;20050;-67
2022/04/22 04:05:50;;;;;;;10.68;5.28;;;8.00;99.90;;;;;;4964549;28;20089;-67
2022/04/22 04:08:17;;;;;;;6.88;4.15;;;8.10;99.90;;;;;;4960961;28;20086;-67
2022/04/22 04:16:11;;;;;;;10.48;4.85;;;7.90;99.90;;;;;;4962063;28;20556;-67
2022/04/22 04:18:38;;;;;;;10.10;4.80;;;7.90;99.90;;;;;;4957465;28;20043;-67
2022/04/22 04:23:52;;;;;;;13.18;4.47;;;7.90;99.90;;;;;;4964995;28;20082;-67
2022/04/22 04:26:21;;;;;;;9.57;4.80;;;7.90;99.90;;;;;;4963500;28;20145;-67
2022/04/22 04:28:47;;;;;;;9.85;4.07;;;7.90;99.90;;;;;;4965882;28;20530;-67
2022/04/22 04:31:13;;;;;;;9.02;3.95;;;7.90;99.90;;;;;;4960259;28;20531;-67
2022/04/22 04:33:39;;;;;;;7.82;4.15;;;7.90;99.90;;;;;;4962905;28;20043;-67
2022/04/22 04:36:05;;;;;;;8.15;4.15;;;7.90;99.90;;;;;;4961480;28;20547;-67
2022/04/22 04:38:32;;;;;;;8.07;4.20;;;8.00;99.90;;;;;;4958981;28;20049;-68
2022/04/22 04:40:59;;;;;;;9.05;3.83;;;7.90;99.90;;;;;;4961116;28;20551;-67
2022/04/22 04:43:26;;;;;;;8.50;4.18;;;7.90;99.90;;;;;;4960448;28;20050;-67
2022/04/22 04:45:52;;;;;;;8.15;4.63;;;8.00;99.90;;;;;;4960673;28;20529;-67
2022/04/22 04:48:18;;;;;;;11.50;4.22;;;7.90;99.90;;;;;;4959439;28;20075;-67
2022/04/22 04:50:46;;;;;;;7.25;3.67;;;8.00;99.90;;;;;;4976908;28;20466;-67
2022/04/22 04:53:12;;;;;;;10.73;3.70;;;8.00;99.90;;;;;;4963175;28;20102;-67
2022/04/22 04:55:38;;;;;;;12.35;3.95;;;8.10;99.90;;;;;;4956449;28;20046;-67
2022/04/22 04:58:04;;;;;;;7.72;3.95;;;8.30;99.90;;;;;;4956998;28;20065;-67
2022/04/22 05:00:30;;;;;;;7.63;3.92;;;8.30;99.90;;;;;;4961166;28;20046;-67
2022/04/22 05:02:56;;;;;;;9.65;3.95;;;8.30;99.90;;;;;;4976088;28;20046;-67
2022/04/22 05:05:22;;;;;;;6.13;3.35;;;8.50;99.90;;;;;;4959049;28;20058;-68
2022/04/22 05:07:59;;;;;;;10.15;4.13;;;8.80;99.90;;;;;;4963407;28;20050;-68
2022/04/22 05:10:27;;;;;;;6.35;3.33;;;9.30;99.90;;;;;;4959670;28;20058;-67
2022/04/22 05:12:53;;;;;;;7.00;3.67;;;9.80;99.90;;;;;;4962310;28;20453;-67
2022/04/22 05:15:22;;;;;;;5.70;2.95;;;10.40;99.90;;;;;;4959225;28;20039;-68
2022/04/22 05:17:49;;;;;;;7.60;3.20;;;10.80;99.90;;;;;;4956473;28;20051;-67
2022/04/22 05:20:17;;;;;;;8.05;3.65;;;11.30;99.90;;;;;;4961756;28;20051;-67
2022/04/22 05:22:43;;;;;;;6.72;3.08;;;11.60;99.90;;;;;;4962540;28;20070;-67
2022/04/22 05:25:10;;;;;;;4.43;2.80;;;12.00;99.90;;;;;;4964418;28;20480;-67
2022/04/22 05:27:37;;;;;;;5.32;2.92;;;12.30;99.90;;;;;;4959642;28;20051;-68
2022/04/22 05:32:49;;;;;;;10.38;3.75;;;12.50;99.90;;;;;;4964685;28;20520;-68
2022/04/22 05:35:17;;;;;;;4.85;2.78;;;11.90;99.90;;;;;;4964642;28;20043;-68
2022/04/22 05:37:51;;;;;;;5.30;2.63;;;11.70;99.90;;;;;;4963983;28;20078;-67
2022/04/22 05:40:22;;;;;;;6.82;3.15;;;12.00;99.90;;;;;;4967159;28;20035;-68
2022/04/22 05:42:49;;;;;;;5.85;2.35;;;12.40;99.90;;;;;;4964813;28;20089;-68
2022/04/22 05:45:16;;;;;;;6.85;2.63;;;13.20;99.90;;;;;;4967664;28;20043;-68
2022/04/22 05:47:42;;;;;;;6.45;2.20;;;13.90;98.00;;;;;;4984086;28;20038;-68
2022/04/22 05:50:14;;;;;;;7.18;2.88;;;14.70;96.20;;;;;;4967227;28;20050;-68
2022/04/22 05:52:40;;;;;;;3.65;2.17;;;14.80;92.80;;;;;;4967900;28;20034;-69
2022/04/22 05:55:08;;;;;;;3.42;2.20;;;15.20;92.70;;;;;;4967661;28;20114;-69
2022/04/22 05:57:35;;;;;;;6.57;2.33;;;15.90;91.70;;;;;;4962463;28;20385;-69
2022/04/22 06:00:09;;;;;;;6.32;2.50;;;16.40;88.60;;;;;;4969371;28;20038;-69
2022/04/22 06:02:35;;;;;;;4.22;2.65;;;16.70;84.70;;;;;;4983479;28;20824;-69
2022/04/22 06:05:01;;;;;;;5.95;2.22;;;17.00;82.50;;;;;;4965554;28;20046;-69
2022/04/22 06:07:26;;;;;;;3.60;2.05;;;17.50;80.60;;;;;;4983418;28;20125;-69
2022/04/22 06:12:37;;;;;;;3.90;2.40;;;17.60;75.80;;;;;;4964626;28;20046;-69
2022/04/22 06:15:04;;;;;;;5.47;2.97;;;18.10;74.60;;;;;;4966548;28;20639;-69
2022/04/22 06:17:31;;;;;;;3.63;2.33;;;18.00;72.60;;;;;;4973218;28;20049;-69
2022/04/22 06:19:57;;;;;;;3.17;2.10;;;18.30;72.10;;;;;;4972871;28;20444;-69
2022/04/22 06:22:24;;;;;;;4.30;2.55;;;18.10;71.00;;;;;;4967867;28;20042;-69
2022/04/22 06:24:49;;;;;;;6.82;2.42;;;17.80;72.00;;;;;;4971513;28;20089;-68
2022/04/22 06:27:29;;;;;;;7.68;2.50;;;17.10;73.10;;;;;;4969266;28;20043;-69
2022/04/22 06:29:56;;;;;;;5.05;2.90;;;16.60;75.00;;;;;;4970595;28;20657;-69
2022/04/22 06:32:23;;;;;;;6.20;2.83;;;16.20;77.30;;;;;;4971791;28;20050;-69
2022/04/22 06:34:52;;;;;;;4.50;2.70;;;15.80;78.00;;;;;;4972288;28;20126;-69
2022/04/22 06:37:18;;;;;;;8.90;2.80;;;15.40;79.10;;;;;;4970699;28;20117;-69
2022/04/22 06:47:59;;;;;;;3.95;2.80;;;14.00;82.90;;;;;;4962786;28;20502;-69
2022/04/22 06:50:25;;;;;;;5.28;2.50;;;14.00;85.50;;;;;;4972002;28;20047;-68
2022/04/22 06:52:50;;;;;;;4.63;2.58;;;13.90;84.20;;;;;;4972523;28;20492;-68
2022/04/22 06:55:17;;;;;;;5.82;2.65;;;13.70;85.30;;;;;;4971573;28;20153;-68
2022/04/22 06:57:46;;;;;;;5.05;2.67;;;13.80;86.30;;;;;;4971210;28;20042;-69
2022/04/22 07:00:13;;;;;;;4.60;2.33;;;13.80;87.60;;;;;;4972590;28;20493;-69
2022/04/22 07:02:39;;;;;;;5.78;2.78;;;13.80;87.50;;;;;;4971739;28;20437;-68
2022/04/22 07:05:05;;;;;;;6.38;2.70;;;14.00;88.20;;;;;;4983042;28;20085;-68
2022/04/22 07:07:31;;;;;;;8.18;2.70;;;14.00;85.70;;;;;;4970594;28;20066;-68
2022/04/22 07:09:57;;;;;;;8.45;2.88;;;13.90;84.80;;;;;;4966561;28;20062;-68
2022/04/22 07:12:27;;;;;;;5.88;2.67;;;13.80;88.10;;;;;;4970989;28;20034;-69
2022/04/22 07:15:03;;;;;;;8.13;2.58;;;13.80;88.90;;;;;;4971655;28;20075;-69
2022/04/22 07:17:35;;;;;;;7.22;2.17;;;14.00;87.80;;;;;;4972243;28;20137;-68
2022/04/22 07:20:09;;;;;;;4.60;2.35;;;14.10;85.60;;;;;;4971325;28;20396;-68
2022/04/22 07:22:36;;;;;;;6.15;2.03;;;13.90;85.80;;;;;;4972136;28;20152;-69
2022/04/22 07:25:03;;;;;;;4.68;2.78;;;13.90;88.30;;;;;;4960686;28;20421;-68
2022/04/22 07:27:34;;;;;;;4.75;2.33;;;13.90;87.00;;;;;;4985758;28;21009;-69
2022/04/22 07:29:59;;;;;;;3.13;2.20;;;13.90;87.60;;;;;;4970630;28;20038;-69
2022/04/22 07:32:27;;;;;;;4.93;2.20;;;13.90;89.30;;;;;;4969121;28;20053;-69
2022/04/22 07:34:54;;;;;;;5.60;2.53;;;13.90;88.00;;;;;;4968593;28;20047;-69
2022/04/22 07:37:21;;;;;;;8.73;2.20;;;14.00;89.10;;;;;;4965530;28;20051;-69
2022/04/22 07:39:47;;;;;;;3.60;1.88;;;14.20;88.90;;;;;;4960933;28;20042;-69
2022/04/22 07:42:17;;;;;;;4.03;1.73;;;14.10;89.50;;;;;;4962682;28;20039;-68
2022/04/22 07:47:32;;;;;;;6.47;1.90;;;14.00;89.70;;;;;;4962671;28;20090;-68
2022/04/22 07:49:58;;;;;;;3.70;1.85;;;14.10;88.80;;;;;;4969846;28;20069;-68
2022/04/22 07:52:25;;;;;;;7.15;2.30;;;14.10;87.70;;;;;;4970598;28;20062;-68
2022/04/22 07:54:51;;;;;;;3.65;1.50;;;14.30;88.60;;;;;;4971633;28;20043;-68
2022/04/22 07:57:16;;;;;;;5.78;2.17;;;14.40;88.90;;;;;;4971226;28;20064;-68
2022/04/22 07:59:42;;;;;;;10.55;1.50;;;14.30;85.00;;;;;;4985716;28;20592;-68
2022/04/22 08:02:08;;;;;;;3.53;1.30;;;14.10;87.10;;;;;;4969173;28;20121;-68
2022/04/22 08:04:34;;;;;;;4.15;1.33;;;14.20;84.70;;;;;;4953656;28;20093;-68
2022/04/22 08:07:01;;;;;;;3.67;1.33;;;14.10;85.20;;;;;;4971486;28;20473;-68
2022/04/22 08:09:26;;;;;;;5.22;1.45;;;14.20;84.30;;;;;;4970128;28;20504;-68
2022/04/22 08:11:52;;;;;;;3.65;1.48;;;14.20;84.60;;;;;;4969542;28;20047;-68
2022/04/22 08:14:17;;;;;;;6.40;2.08;;;14.20;86.20;;;;;;4969965;28;20090;-68
2022/04/22 08:16:43;;;;;;;4.72;1.67;;;14.40;86.10;;;;;;4971100;28;20689;-69
2022/04/22 08:19:09;;;;;;;4.25;1.38;;;14.40;87.10;;;;;;4968385;28;20039;-69
2022/04/22 08:21:35;;;;;;;8.60;1.30;;;14.60;86.70;;;;;;4985596;28;20121;-68
2022/04/22 08:24:10;;;;;;;2.45;1.30;;;14.80;86.60;;;;;;4970071;28;20488;-69
2022/04/22 08:26:35;;;;;;;2.67;1.38;;;14.80;85.90;;;;;;4960992;28;20512;-68
2022/04/22 08:29:01;;;;;;;4.25;1.45;;;14.90;84.50;;;;;;4970467;28;20043;-68
2022/04/22 08:31:27;;;;;;;3.42;1.00;;;14.80;85.00;;;;;;4968014;28;20072;-68
2022/04/22 08:33:55;;;;;;;5.05;1.42;;;14.90;85.30;;;;;;4983029;28;20042;-68
2022/04/22 08:36:22;;;;;;;3.40;1.38;;;14.90;83.50;;;;;;4969586;28;20078;-69
2022/04/22 08:38:48;;;;;;;3.50;0.90;;;14.90;85.00;;;;;;4963319;28;20035;-68
2022/04/22 08:41:16;;;;;;;5.15;1.05;;;14.90;82.70;;;;;;4984623;28;20042;-69
2022/04/22 08:43:42;;;;;;;1.80;1.10;;;15.00;85.10;;;;;;4967683;28;20062;-69
2022/04/22 08:51:40;;;;;;;2.67;1.10;;;15.10;83.30;;;;;;4967319;28;20055;-68
2022/04/22 08:54:09;;;;;;;6.03;1.30;;;15.20;82.40;;;;;;4967147;28;20053;-68
2022/04/22 08:56:36;;;;;;;4.13;1.45;;;15.20;82.10;;;;;;4971100;28;20527;-68
2022/04/22 08:59:02;;;;;;;6.55;1.50;;;15.20;84.00;;;;;;4966482;28;20038;-68
2022/04/22 09:01:27;;;;;;;4.32;1.58;;;15.30;82.50;;;;;;4984942;28;20049;-69
2022/04/22 09:03:53;;;;;;;3.45;0.93;;;15.30;82.80;;;;;;4969249;28;20038;-68
2022/04/22 09:06:20;;;;;;;2.72;1.08;;;15.30;81.80;;;;;;4966431;28;20138;-69
2022/04/22 09:08:48;;;;;;;4.07;1.20;;;15.50;82.80;;;;;;4969940;28;20049;-68
2022/04/22 09:11:14;;;;;;;4.55;1.00;;;15.50;80.10;;;;;;4967782;28;20034;-68
2022/04/22 09:13:39;;;;;;;2.15;1.00;;;15.50;80.70;;;;;;4968717;28;20097;-69
2022/04/22 09:16:05;;;;;;;7.28;1.73;;;15.60;78.90;;;;;;4969085;28;20453;-69
2022/04/22 09:18:35;;;;;;;5.90;1.75;;;15.70;80.40;;;;;;4969533;28;20086;-69
2022/04/22 09:21:06;;;;;;;3.97;1.30;;;15.80;82.50;;;;;;4968193;28;20034;-69
2022/04/22 09:23:33;;;;;;;4.10;1.20;;;15.90;80.50;;;;;;4968141;28;20050;-69
2022/04/22 09:25:59;;;;;;;8.70;1.55;;;16.00;79.40;;;;;;4969898;28;20049;-69
2022/04/22 09:28:25;;;;;;;4.07;1.58;;;15.90;78.10;;;;;;4966097;28;20039;-69
2022/04/22 09:31:02;;;;;;;5.78;1.67;;;15.90;79.10;;;;;;4966047;28;20043;-69
2022/04/22 09:33:44;;;;;;;3.33;1.23;;;15.90;77.90;;;;;;4951350;28;20043;-69
2022/04/22 09:45:07;;;;;;;6.47;1.50;;;16.20;78.50;;;;;;4962274;28;20054;-69
2022/04/22 09:47:35;;;;;;;3.35;1.08;;;16.40;78.80;;;;;;4969801;28;20098;-68
2022/04/22 09:50:11;;;;;;;6.18;1.60;;;16.50;77.40;;;;;;4967843;28;20047;-69
2022/04/22 09:52:46;;;;;;;5.63;1.17;;;16.40;75.70;;;;;;4973297;28;20051;-68
2022/04/22 09:55:16;;;;;;;5.05;1.67;;;16.40;74.60;;;;;;4971729;28;20046;-69
2022/04/22 09:57:54;;;;;;;3.47;1.20;;;16.50;76.30;;;;;;4973814;28;20087;-68
2022/04/22 10:00:21;;;;;;;8.43;1.10;;;16.50;76.40;;;;;;4966204;28;20046;-69
2022/04/22 10:02:51;;;;;;;2.47;1.40;;;16.50;75.90;;;;;;4968674;28;20046;-68
2022/04/22 10:05:23;;;;;;;1.63;1.00;;;16.30;73.60;;;;;;4968134;28;20097;-68
2022/04/22 10:07:52;;;;;;;4.50;1.90;;;16.40;73.90;;;;;;4967574;28;20047;-68
2022/04/22 10:10:22;;;;;;;3.40;1.30;;;16.40;73.20;;;;;;4967683;28;20055;-68
2022/04/22 10:12:49;;;;;;;3.65;1.88;;;16.40;74.00;;;;;;4971643;28;20174;-68
2022/04/22 10:15:19;;;;;;;7.38;1.63;;;16.50;74.60;;;;;;4969611;28;20082;-69
2022/04/22 10:17:46;;;;;;;4.45;1.55;;;16.60;74.90;;;;;;4969811;28;20038;-69
2022/04/22 10:20:13;;;;;;;2.90;1.50;;;16.60;76.40;;;;;;4971083;28;20405;-68
2022/04/22 10:22:39;;;;;;;5.88;1.88;;;16.70;74.20;;;;;;4986159;28;20077;-69
2022/04/22 10:25:07;;;;;;;3.65;1.90;;;16.80;74.20;;;;;;4970175;28;20094;-69
2022/04/22 10:27:37;;;;;;;2.92;1.40;;;16.70;73.10;;;;;;4968323;28;20382;-69
2022/04/22 10:30:06;;;;;;;5.43;1.70;;;16.80;74.30;;;;;;4966110;28;20067;-69
2022/04/22 10:32:33;;;;;;;5.07;1.65;;;16.90;72.50;;;;;;4969874;28;20051;-69
2022/04/22 10:35:01;;;;;;;4.63;1.50;;;16.90;74.30;;;;;;4967999;28;20524;-69
2022/04/22 10:37:28;;;;;;;5.90;1.95;;;16.90;74.60;;;;;;4964994;28;20081;-69
2022/04/22 10:39:56;;;;;;;6.18;1.70;;;16.90;73.10;;;;;;4967754;28;20055;-69
2022/04/22 10:42:37;;;;;;;2.95;1.42;;;17.00;77.90;;;;;;4964168;28;20058;-69
2022/04/22 10:47:54;;;;;;;9.73;2.20;;;17.00;74.80;;;;;;4966463;28;20125;-68
2022/04/22 10:50:37;;;;;;;2.88;1.70;;;17.10;73.20;;;;;;4965984;28;20034;-69
2022/04/22 10:53:05;;;;;;;5.85;1.83;;;17.30;75.60;;;;;;4970167;28;20062;-68
2022/04/22 10:55:36;;;;;;;3.92;1.90;;;17.40;74.40;;;;;;4968202;28;20035;-69
2022/04/22 10:58:13;;;;;;;5.50;1.95;;;17.50;74.60;;;;;;4966919;28;20129;-69
2022/04/22 11:00:45;;;;;;;4.03;2.00;;;17.50;75.30;;;;;;4971812;28;20042;-69
2022/04/22 11:03:21;;;;;;;5.45;2.35;;;17.30;74.50;;;;;;4967959;28;20154;-68
2022/04/22 11:05:56;;;;;;;5.53;1.73;;;17.40;74.80;;;;;;4968369;28;20034;-69
2022/04/22 11:08:26;;;;;;;9.80;2.53;;;17.60;76.10;;;;;;4980461;28;20114;-69
2022/04/22 11:10:52;;;;;;;4.75;1.98;;;17.60;76.00;;;;;;4967373;28;20098;-69
2022/04/22 11:13:32;;;;;;;2.83;1.67;;;17.60;76.70;;;;;;4967554;28;20055;-69
2022/04/22 11:16:22;;;;;;;6.03;1.90;;;17.60;71.50;;;;;;4967552;28;20074;-69
2022/04/22 11:19:26;;;;;;;4.80;2.22;;;17.70;74.30;;;;;;4971106;28;20051;-68
2022/04/22 11:21:57;;;;;;;4.15;2.05;;;17.50;70.40;;;;;;4965419;28;20043;-69
2022/04/22 11:24:33;;;;;;;2.95;1.85;;;17.50;71.80;;;;;;4967289;28;20117;-69
2022/04/22 11:27:14;;;;;;;5.30;1.83;;;17.60;73.10;;;;;;4982739;28;20039;-69
2022/04/22 11:29:41;;;;;;;3.97;1.90;;;17.70;75.30;;;;;;4965618;28;20050;-69
2022/04/22 11:32:15;;;;;;;5.18;1.98;;;18.00;75.70;;;;;;4964656;28;20074;-69
2022/04/22 11:34:59;;;;;;;3.53;2.30;;;18.10;75.20;;;;;;4966928;28;20059;-69
2022/04/22 11:37:25;;;;;;;7.30;2.17;;;18.10;71.40;;;;;;4968166;28;20049;-69
2022/04/22 11:39:51;;;;;;;5.70;2.13;;;18.00;69.20;;;;;;4967186;28;20081;-69
2022/04/22 11:42:17;;;;;;;5.70;2.60;;;17.90;71.70;;;;;;4966313;28;20050;-69
2022/04/22 11:44:45;;;;;;;4.35;2.78;;;17.80;70.20;;;;;;4965443;28;20055;-69
2022/04/22 11:47:10;;;;;;;5.03;2.53;;;17.80;73.10;;;;;;4964971;28;20061;-69
2022/04/22 11:49:38;;;;;;;3.95;2.28;;;17.90;73.10;;;;;;4965688;28;20043;-68
2022/04/22 11:52:04;;;;;;;5.55;2.67;;;17.70;69.80;;;;;;4965495;28;20042;-69
2022/04/22 11:54:29;;;;;;;6.88;2.65;;;17.70;74.20;;;;;;4981325;28;20046;-69
2022/04/22 11:56:55;;;;;;;5.88;2.50;;;17.80;78.30;;;;;;4968357;28;20038;-69
2022/04/22 11:59:24;;;;;;;15.02;2.38;;;17.90;74.70;;;;;;4967824;28;20058;-69
2022/04/22 12:10:00;;;;;;;4.15;2.20;;;18.00;74.10;;;;;;4965794;28;20042;-69
2022/04/22 12:12:31;;;;;;;7.28;2.85;;;18.10;73.70;;;;;;4967267;28;20050;-69
2022/04/22 12:15:05;;;;;;;5.05;2.40;;;18.00;72.60;;;;;;4967153;28;20069;-69
2022/04/22 12:17:31;;;;;;;4.30;2.10;;;17.90;75.40;;;;;;4966314;28;20370;-69
2022/04/22 12:19:57;;;;;;;4.43;2.50;;;18.10;74.70;;;;;;4958881;28;20039;-69
2022/04/22 12:22:24;;;;;;;7.03;2.58;;;18.00;75.30;;;;;;4979293;28;20585;-69
2022/04/22 12:25:10;;;;;;;5.85;2.60;;;18.10;73.10;;;;;;4962243;28;20074;-68
2022/04/22 12:27:37;;;;;;;5.90;1.92;;;18.20;70.50;;;;;;4964783;28;20039;-68
2022/04/22 12:30:08;;;;;;;5.18;2.30;;;18.20;69.90;;;;;;4982496;28;20050;-68
2022/04/22 12:32:36;;;;;;;7.18;2.47;;;18.00;67.50;;;;;;4966783;28;20043;-68
2022/04/22 12:35:12;;;;;;;3.25;2.25;;;17.90;68.60;;;;;;4978591;28;20051;-68
2022/04/22 12:37:43;;;;;;;9.48;2.90;;;17.80;70.50;;;;;;4967492;28;20493;-68
2022/04/22 12:40:10;;;;;;;2.97;2.05;;;17.90;69.20;;;;;;4966650;28;20042;-68
2022/04/22 12:42:36;;;;;;;7.78;2.28;;;17.90;68.70;;;;;;4964356;28;20046;-68
2022/04/22 12:53:50;;;;;;;5.57;3.08;;;18.20;70.20;;;;;;4966022;28;20058;-68
2022/04/22 12:56:23;;;;;;;4.05;2.83;;;18.20;69.60;;;;;;4963529;28;20057;-69
2022/04/22 12:58:53;;;;;;;5.53;2.75;;;18.10;69.00;;;;;;4965041;28;21003;-68
2022/04/22 13:01:30;;;;;;;8.77;3.35;;;18.10;68.90;;;;;;4967535;28;20370;-68
2022/04/22 13:03:57;;;;;;;5.43;2.85;;;18.10;69.60;;;;;;4966430;28;20121;-68
2022/04/22 13:07:08;;;;;;;8.70;3.80;;;18.30;71.20;;;;;;4963939;28;20047;-69
2022/04/22 13:09:34;;;;;;;4.45;3.03;;;18.10;69.80;;;;;;4940589;29;20578;-68
2022/04/22 13:11:59;;;;;;;7.28;3.40;;;17.90;68.80;;;;;;4964565;28;20054;-68
2022/04/22 13:14:25;;;;;;;5.20;2.90;;;17.90;70.10;;;;;;4965173;28;20073;-69
2022/04/22 13:16:50;;;;;;;11.75;3.50;;;17.90;70.00;;;;;;4965761;28;20051;-69
2022/04/22 13:19:16;;;;;;;7.00;3.85;;;17.90;70.60;;;;;;4967708;28;20046;-68
2022/04/22 13:21:41;;;;;;;6.00;3.25;;;17.60;70.10;;;;;;4967986;28;20039;-68
2022/04/22 13:24:07;;;;;;;9.73;4.22;;;17.60;70.70;;;;;;4967418;28;20436;-68
2022/04/22 13:26:33;;;;;;;9.32;3.85;;;17.60;71.30;;;;;;4966027;28;20047;-68
2022/04/22 13:28:59;;;;;;;8.13;4.28;;;17.60;71.20;;;;;;4980777;28;20038;-68
2022/04/22 13:31:25;;;;;;;8.30;3.88;;;17.50;71.80;;;;;;4965162;28;20065;-69
2022/04/22 13:33:50;;;;;;;9.20;4.90;;;17.50;73.50;;;;;;4966591;28;20042;-68
2022/04/22 13:36:16;;;;;;;11.23;4.38;;;17.60;70.80;;;;;;4964783;28;20482;-68
2022/04/22 13:38:44;;;;;;;6.68;4.50;;;17.60;71.60;;;;;;4966928;28;20657;-69
2022/04/22 13:41:10;;;;;;;12.35;4.80;;;17.70;71.80;;;;;;4965633;28;20046;-69
2022/04/22 13:43:35;;;;;;;10.07;4.30;;;17.90;72.30;;;;;;4982072;28;20034;-69
2022/04/22 13:54:16;;;;;;;7.00;4.57;;;18.10;69.80;;;;;;4967161;28;20042;-68
2022/04/22 13:56:42;;;;;;;10.80;4.63;;;17.90;71.60;;;;;;4966149;28;20098;-68
2022/04/22 13:59:08;;;;;;;7.55;4.25;;;17.80;72.60;;;;;;4966901;28;20561;-68
2022/04/22 14:01:34;;;;;;;8.07;4.18;;;18.00;72.40;;;;;;4968097;28;20101;-68
2022/04/22 14:04:00;;;;;;;10.75;4.88;;;18.10;71.20;;;;;;4967692;28;20043;-68
2022/04/22 14:06:25;;;;;;;6.85;4.47;;;18.20;70.60;;;;;;4964436;28;20053;-68
2022/04/22 14:08:51;;;;;;;10.02;4.60;;;18.20;70.20;;;;;;4965959;28;20121;-68